Dahl Creek Airport


Codes: DCK/DCK
Name: Dahl Creek Airport
City: Dahl Creek
Country: United States
Elevation: 260 ft.

Photos at Dahl Creek Airport


   Photos courtesy of SpottingLog. You can add your own sightings and photos by signing up for a free trial today.



No photos found.

Weather at Dahl Creek Airport


Time (UTC)DescriptionTempratureWindCloud coverageVisibilityPressureHumidity
16-Jun-2024 03:00Clear Sky18°C9 mph, NW8%10000m1022hPa37%
16-Jun-2024 06:00Few Clouds18°C7 mph, W15%10000m1022hPa46%
16-Jun-2024 09:00Overcast Clouds13°C7 mph, W91%10000m1021hPa68%
16-Jun-2024 12:00Broken Clouds10°C4 mph, W66%10000m1022hPa76%
16-Jun-2024 15:00Clear Sky11°C4 mph, W4%10000m1021hPa68%
16-Jun-2024 18:00Clear Sky15°C4 mph, W9%10000m1021hPa56%
16-Jun-2024 21:00Scattered Clouds19°C7 mph, W45%10000m1019hPa43%
17-Jun-2024 00:00Scattered Clouds21°C11 mph, W46%10000m1018hPa34%
17-Jun-2024 03:00Overcast Clouds20°C16 mph, W85%10000m1016hPa38%
17-Jun-2024 06:00Overcast Clouds18°C9 mph, W92%10000m1016hPa50%
17-Jun-2024 09:00Broken Clouds12°C4 mph, SW83%10000m1015hPa64%
17-Jun-2024 12:00Broken Clouds9°C4 mph, SW57%10000m1015hPa72%
17-Jun-2024 15:00Few Clouds11°C4 mph, SW19%10000m1015hPa63%
17-Jun-2024 18:00Scattered Clouds14°C4 mph, SW43%10000m1014hPa50%
17-Jun-2024 21:00Broken Clouds17°C7 mph, SW70%10000m1013hPa40%
18-Jun-2024 00:00Broken Clouds19°C7 mph, W58%10000m1012hPa35%
18-Jun-2024 03:00Overcast Clouds20°C9 mph, W96%10000m1011hPa35%
18-Jun-2024 06:00Overcast Clouds18°C7 mph, W98%10000m1010hPa50%
18-Jun-2024 09:00Overcast Clouds13°C4 mph, SW100%10000m1010hPa64%
18-Jun-2024 12:00Broken Clouds10°C2 mph, SW74%10000m1010hPa74%
18-Jun-2024 15:00Few Clouds12°C2 mph, SW24%10000m1010hPa65%
18-Jun-2024 18:00Broken Clouds15°C2 mph, S58%10000m1010hPa53%
18-Jun-2024 21:00Overcast Clouds18°C2 mph, SW100%10000m1009hPa42%
19-Jun-2024 00:00Overcast Clouds21°C4 mph, S99%10000m1008hPa41%
19-Jun-2024 03:00Light Rain17°C4 mph, SW99%10000m1008hPa67%
19-Jun-2024 06:00Light Rain15°C2 mph, E100%10000m1009hPa84%
19-Jun-2024 09:00Light Rain13°C7 mph, E82%10000m1010hPa86%
19-Jun-2024 12:00Broken Clouds12°C4 mph, SE60%10000m1011hPa86%
19-Jun-2024 15:00Broken Clouds14°C2 mph, S54%10000m1012hPa83%
19-Jun-2024 18:00Light Rain13°C4 mph, SW62%10000m1014hPa89%
19-Jun-2024 21:00Overcast Clouds16°C2 mph, SW100%10000m1015hPa59%
20-Jun-2024 00:00Overcast Clouds18°C4 mph, NW100%10000m1015hPa47%
20-Jun-2024 03:00Overcast Clouds19°C4 mph, NW98%10000m1014hPa44%
20-Jun-2024 06:00Overcast Clouds19°C4 mph, N85%10000m1014hPa51%
20-Jun-2024 09:00Broken Clouds14°C4 mph, NW82%10000m1015hPa62%
20-Jun-2024 12:00Broken Clouds12°C4 mph, N71%10000m1015hPa67%
20-Jun-2024 15:00Scattered Clouds14°C2 mph, NW49%10000m1015hPa60%
20-Jun-2024 18:00Scattered Clouds18°C7 mph, W38%10000m1015hPa46%
20-Jun-2024 21:00Few Clouds21°C7 mph, NW18%10000m1014hPa42%
21-Jun-2024 00:00Few Clouds23°C9 mph, NW15%10000m1013hPa37%